createdAt,value
2018-10-06T00:00:47.236Z,67.44
2018-10-06T00:03:15.101Z,67.16
2018-10-06T00:05:42.768Z,66.95
2018-10-06T00:08:10.455Z,67.15
2018-10-06T00:10:38.033Z,67.64
2018-10-06T00:13:05.600Z,67.15
2018-10-06T00:15:33.421Z,67.68
2018-10-06T00:18:01.148Z,67.62
2018-10-06T00:20:28.710Z,67.34
2018-10-06T00:22:56.440Z,67.77
2018-10-06T00:25:23.966Z,67.28
2018-10-06T00:27:51.490Z,67.90
2018-10-06T00:30:19.291Z,68.26
2018-10-06T00:32:46.848Z,68.18
2018-10-06T00:35:14.582Z,68.82
2018-10-06T00:37:42.388Z,68.29
2018-10-06T00:40:10.157Z,68.00
2018-10-06T00:42:37.713Z,68.19
2018-10-06T00:45:05.238Z,68.70
2018-10-06T00:47:32.830Z,68.96
2018-10-06T00:50:00.354Z,68.53
2018-10-06T00:52:28.016Z,68.38
2018-10-06T00:54:55.564Z,69.15
2018-10-06T00:57:23.337Z,69.00
2018-10-06T00:59:50.861Z,69.29
2018-10-06T01:02:18.420Z,69.30
2018-10-06T01:04:46.043Z,68.71
2018-10-06T01:07:13.625Z,68.40
2018-10-06T01:09:41.275Z,68.43
2018-10-06T01:12:08.862Z,68.28
2018-10-06T01:14:36.645Z,68.37
2018-10-06T01:17:04.249Z,69.05
2018-10-06T01:19:32.006Z,68.00
2018-10-06T01:21:59.589Z,68.88
2018-10-06T01:24:27.406Z,69.42
2018-10-06T01:26:55.315Z,69.29
2018-10-06T01:29:22.948Z,69.17
2018-10-06T01:31:50.498Z,68.82
2018-10-06T01:34:18.115Z,70.11
2018-10-06T01:36:45.627Z,70.87
2018-10-06T01:39:13.252Z,70.16
2018-10-06T01:41:40.789Z,70.23
2018-10-06T01:44:08.380Z,72.06
2018-10-06T01:46:35.924Z,71.56
2018-10-06T01:49:03.555Z,70.83
2018-10-06T01:51:31.097Z,71.02
2018-10-06T01:53:58.642Z,70.29
2018-10-06T01:56:26.320Z,69.54
2018-10-06T01:58:53.904Z,70.02
2018-10-06T02:01:21.454Z,70.04
2018-10-06T02:03:49.031Z,69.56
2018-10-06T02:06:16.652Z,70.00
2018-10-06T02:08:44.338Z,69.85
2018-10-06T02:11:11.882Z,69.95
2018-10-06T02:13:39.615Z,69.57
2018-10-06T02:16:07.464Z,69.84
2018-10-06T02:18:35.140Z,69.59
2018-10-06T02:21:02.942Z,69.23
2018-10-06T02:23:30.679Z,69.15
2018-10-06T02:25:58.561Z,68.94
2018-10-06T02:28:26.165Z,68.95
2018-10-06T02:30:53.744Z,70.42
2018-10-06T02:33:21.761Z,69.55
2018-10-06T02:35:49.608Z,70.24
2018-10-06T02:38:17.357Z,69.30
2018-10-06T02:40:45.198Z,70.01
2018-10-06T02:43:12.757Z,69.86
2018-10-06T02:45:40.486Z,69.44
2018-10-06T02:48:08.080Z,69.45
2018-10-06T02:50:35.618Z,69.70
2018-10-06T02:53:03.743Z,70.00
2018-10-06T02:55:31.284Z,69.71
2018-10-06T02:57:58.818Z,69.28
2018-10-06T03:00:26.687Z,69.25
2018-10-06T03:02:54.222Z,69.34
2018-10-06T03:05:21.811Z,70.16
2018-10-06T03:07:49.351Z,69.65
2018-10-06T03:10:16.972Z,69.53
2018-10-06T03:12:44.579Z,69.53
2018-10-06T03:15:12.123Z,69.42
2018-10-06T03:17:39.978Z,69.25
2018-10-06T03:20:07.557Z,69.75
2018-10-06T03:22:35.119Z,69.81
2018-10-06T03:25:02.653Z,69.27
2018-10-06T03:27:30.246Z,69.05
2018-10-06T03:29:57.761Z,69.41
2018-10-06T03:32:25.374Z,69.60
2018-10-06T03:34:53.092Z,70.99
2018-10-06T03:37:20.688Z,69.74
2018-10-06T03:39:48.417Z,69.28
2018-10-06T03:42:15.961Z,69.74
2018-10-06T03:44:43.819Z,69.71
2018-10-06T03:47:11.500Z,70.32
2018-10-06T03:49:39.227Z,70.28
2018-10-06T03:52:07.013Z,70.00
2018-10-06T03:54:35.047Z,69.24
2018-10-06T03:57:02.816Z,69.59
2018-10-06T03:59:30.382Z,69.73
2018-10-06T04:01:57.900Z,69.00
2018-10-06T04:04:25.478Z,69.83
2018-10-06T04:06:53.167Z,69.79
2018-10-06T04:09:20.710Z,69.36
2018-10-06T04:11:48.291Z,69.74
2018-10-06T04:14:15.820Z,69.64
2018-10-06T04:16:43.461Z,70.17
2018-10-06T04:19:11.027Z,70.12
2018-10-06T04:21:38.543Z,70.97
2018-10-06T04:24:06.149Z,70.75
2018-10-06T04:26:33.916Z,70.18
2018-10-06T04:29:01.472Z,70.67
2018-10-06T04:31:29.037Z,71.18
2018-10-06T04:33:56.571Z,71.19
2018-10-06T04:36:24.120Z,71.35
2018-10-06T04:38:51.692Z,71.61
2018-10-06T04:41:19.276Z,71.52
2018-10-06T04:43:47.007Z,71.30
2018-10-06T04:46:14.574Z,71.82
2018-10-06T04:48:42.101Z,71.45
2018-10-06T04:51:09.688Z,70.86
2018-10-06T04:53:37.223Z,71.33
2018-10-06T04:56:04.793Z,71.95
2018-10-06T04:58:32.326Z,70.92
2018-10-06T05:00:59.928Z,70.73
2018-10-06T05:03:27.500Z,70.88
2018-10-06T05:05:55.169Z,71.31
2018-10-06T05:08:22.908Z,71.06
2018-10-06T05:10:50.596Z,72.02
2018-10-06T05:13:18.132Z,71.79
2018-10-06T05:15:45.689Z,71.86
2018-10-06T05:18:13.216Z,71.04
2018-10-06T05:20:40.889Z,71.97
2018-10-06T05:23:08.548Z,71.58
2018-10-06T05:25:36.064Z,72.12
2018-10-06T05:28:04.029Z,71.26
2018-10-06T05:30:31.598Z,71.42
2018-10-06T05:32:59.257Z,71.19
2018-10-06T05:35:26.805Z,71.64
2018-10-06T05:37:54.358Z,71.37
2018-10-06T05:40:21.913Z,70.84
2018-10-06T05:42:49.433Z,71.29
2018-10-06T05:45:17.212Z,71.06
2018-10-06T05:47:44.738Z,70.60
2018-10-06T05:50:12.267Z,71.02
2018-10-06T05:52:39.820Z,71.15
2018-10-06T05:55:07.367Z,71.09
2018-10-06T05:57:34.874Z,71.58
2018-10-06T06:00:02.441Z,71.17
2018-10-06T06:02:29.977Z,71.23
2018-10-06T06:04:57.504Z,71.31
2018-10-06T06:07:25.065Z,70.82
2018-10-06T06:09:52.711Z,71.06
2018-10-06T06:12:20.181Z,70.72
2018-10-06T06:14:47.919Z,70.28
2018-10-06T06:17:15.502Z,70.18
2018-10-06T06:19:43.046Z,70.06
2018-10-06T06:22:10.594Z,70.78
2018-10-06T06:24:38.135Z,70.68
2018-10-06T06:27:05.844Z,70.06
2018-10-06T06:29:33.361Z,70.23
2018-10-06T06:32:00.882Z,70.57
2018-10-06T06:34:28.590Z,71.09
2018-10-06T06:36:56.217Z,70.97
2018-10-06T06:39:23.866Z,70.38
2018-10-06T06:41:51.590Z,70.88
2018-10-06T06:44:19.398Z,71.01
2018-10-06T06:46:46.974Z,70.70
2018-10-06T06:49:14.539Z,70.82
2018-10-06T06:51:42.979Z,71.14
2018-10-06T06:54:10.720Z,70.55
2018-10-06T06:56:38.455Z,71.06
2018-10-06T06:59:06.168Z,70.42
2018-10-06T07:01:33.888Z,71.03
2018-10-06T07:04:01.409Z,70.48
2018-10-06T07:06:28.965Z,71.38
2018-10-06T07:08:56.523Z,70.18
2018-10-06T07:11:24.089Z,71.21
2018-10-06T07:13:51.619Z,71.75
2018-10-06T07:16:19.181Z,70.85
2018-10-06T07:18:46.741Z,71.47
2018-10-06T07:21:14.306Z,71.02
2018-10-06T07:23:42.012Z,70.53
2018-10-06T07:26:09.631Z,71.52
2018-10-06T07:28:38.127Z,70.87
2018-10-06T07:31:05.590Z,70.99
2018-10-06T07:33:33.171Z,70.99
2018-10-06T07:36:00.798Z,71.05
2018-10-06T07:38:28.591Z,70.29
2018-10-06T07:40:56.192Z,70.79
2018-10-06T07:43:23.805Z,70.09
2018-10-06T07:45:51.396Z,70.98
2018-10-06T07:48:18.925Z,69.90
2018-10-06T07:50:46.454Z,70.92
2018-10-06T07:53:15.768Z,70.00
2018-10-06T07:55:43.626Z,70.13
2018-10-06T07:58:11.317Z,68.96
2018-10-06T08:00:38.921Z,69.34
2018-10-06T08:03:06.605Z,70.86
2018-10-06T08:05:34.434Z,69.57
2018-10-06T08:08:02.077Z,69.74
2018-10-06T08:10:29.944Z,69.40
2018-10-06T08:12:58.943Z,68.95
2018-10-06T08:15:26.681Z,68.78
2018-10-06T08:17:54.322Z,68.02
2018-10-06T08:20:21.985Z,68.87
2018-10-06T08:22:49.889Z,68.95
2018-10-06T08:25:17.607Z,68.91
2018-10-06T08:27:45.277Z,68.62
2018-10-06T08:30:12.868Z,69.07
2018-10-06T08:32:40.584Z,68.75
2018-10-06T08:35:08.229Z,68.56
2018-10-06T08:37:36.018Z,67.79
2018-10-06T08:40:03.721Z,68.10
2018-10-06T08:42:31.308Z,67.03
2018-10-06T08:44:58.957Z,67.00
2018-10-06T08:47:26.862Z,66.58
2018-10-06T08:58:32.892Z,65.89
2018-10-06T09:01:00.586Z,65.34
2018-10-06T09:03:28.234Z,65.54
2018-10-06T09:05:55.816Z,65.59
2018-10-06T09:08:23.405Z,66.55
2018-10-06T09:10:51.059Z,66.16
2018-10-06T09:13:18.711Z,66.94
2018-10-06T09:15:46.293Z,65.52
2018-10-06T09:18:13.833Z,64.58
2018-10-06T09:20:41.392Z,64.89
2018-10-06T09:23:09.076Z,65.10
2018-10-06T09:25:36.655Z,63.87
2018-10-06T09:28:04.244Z,64.05
2018-10-06T09:30:31.750Z,64.21
2018-10-06T09:32:59.351Z,64.98
2018-10-06T09:35:26.891Z,63.56
2018-10-06T09:43:37.851Z,63.95
2018-10-06T09:46:05.351Z,64.68
2018-10-06T09:48:32.894Z,65.37
2018-10-06T09:51:00.442Z,64.14
2018-10-06T09:53:28.098Z,63.94
2018-10-06T09:55:55.620Z,63.60
2018-10-06T09:58:23.176Z,64.37
2018-10-06T10:00:50.755Z,64.29
2018-10-06T10:03:19.076Z,64.03
2018-10-06T10:05:46.716Z,61.94
2018-10-06T10:08:14.333Z,62.79
2018-10-06T10:10:41.948Z,61.85
2018-10-06T10:13:09.482Z,60.79
2018-10-06T10:15:37.002Z,60.27
2018-10-06T10:18:04.627Z,59.97
2018-10-06T10:20:32.144Z,59.75
2018-10-06T10:22:59.736Z,60.91
2018-10-06T10:25:27.286Z,60.06
2018-10-06T10:27:54.838Z,60.40
2018-10-06T10:30:22.387Z,59.90
2018-10-06T10:32:49.937Z,59.30
2018-10-06T10:35:17.444Z,59.02
2018-10-06T10:37:45.139Z,58.67
2018-10-06T10:40:12.867Z,58.14
2018-10-06T10:42:41.597Z,57.73
2018-10-06T10:53:47.244Z,56.29
2018-10-06T12:19:41.185Z,51.05
2018-10-06T12:22:08.830Z,50.96
2018-10-06T12:24:36.355Z,50.66
2018-10-06T12:27:04.094Z,50.18
2018-10-06T12:29:31.686Z,50.58
2018-10-06T12:31:59.257Z,50.87
2018-10-06T20:00:26.904Z,63.50
2018-10-06T20:02:54.624Z,63.35
2018-10-06T20:05:22.212Z,63.17
2018-10-06T20:07:49.836Z,63.22
2018-10-06T21:27:59.861Z,67.46
2018-10-06T21:30:29.780Z,68.36
2018-10-06T21:32:57.536Z,67.48
2018-10-06T21:35:25.216Z,67.70
